Time;durP1;ratioP1;P1;durP2;ratioP2;P2;SDS_P1;SDS_P2;PMS_P1;PMS_P2;Temp;Humidity;BMP_temperature;BMP_pressure;BME280_temperature;BME280_humidity;BME280_pressure;Samples;Min_cycle;Max_cycle;Signal;HPM_P1;HPM_P2
2024/01/10 00:04:26;;;;;;;214.47;104.70;;;-7.80;99.90;;;;;;10072426;29;20281;-82
2024/01/10 00:09:29;;;;;;;252.97;121.90;;;-7.50;99.90;;;;;;10065695;29;20270;-82
2024/01/10 00:14:31;;;;;;;231.23;110.13;;;-7.50;99.90;;;;;;10075575;29;20293;-83
2024/01/10 00:19:34;;;;;;;238.27;116.33;;;-8.10;99.90;;;;;;10071837;29;20274;-82
2024/01/10 00:24:36;;;;;;;243.57;120.13;;;-8.00;99.90;;;;;;10069556;29;20260;-83
2024/01/10 00:29:39;;;;;;;221.27;110.80;;;-8.10;99.90;;;;;;10068013;29;20233;-82
2024/01/10 00:34:41;;;;;;;227.03;116.37;;;-8.30;99.90;;;;;;10094682;29;20280;-83
2024/01/10 00:39:44;;;;;;;228.33;110.20;;;-7.80;99.90;;;;;;10087920;29;20233;-83
2024/01/10 00:44:46;;;;;;;234.37;112.43;;;-7.90;99.90;;;;;;10071473;29;20241;-82
2024/01/10 00:49:49;;;;;;;207.03;105.17;;;-8.10;99.90;;;;;;10096115;29;20686;-83
2024/01/10 00:54:52;;;;;;;232.13;111.53;;;-8.40;99.90;;;;;;10067262;29;20265;-83
2024/01/10 00:59:54;;;;;;;222.90;107.43;;;-7.90;99.90;;;;;;10075505;29;20217;-83
2024/01/10 01:04:57;;;;;;;227.77;110.27;;;-8.10;99.90;;;;;;10076517;29;20240;-83
2024/01/10 01:10:00;;;;;;;230.10;106.73;;;-8.10;99.90;;;;;;10069368;29;20249;-83
2024/01/10 01:15:03;;;;;;;209.13;103.10;;;-8.10;99.90;;;;;;10091732;29;20248;-82
2024/01/10 01:20:06;;;;;;;218.70;113.90;;;-7.90;99.90;;;;;;10093302;29;20292;-83
2024/01/10 01:25:09;;;;;;;211.83;104.37;;;-8.40;99.90;;;;;;10093114;29;20244;-83
2024/01/10 01:30:12;;;;;;;186.43;95.67;;;-8.00;99.90;;;;;;10092215;29;20651;-82
2024/01/10 01:35:15;;;;;;;177.97;88.37;;;-7.90;99.90;;;;;;10075738;29;20320;-82
2024/01/10 01:40:18;;;;;;;189.97;92.27;;;-7.40;99.90;;;;;;10075616;29;20245;-82
2024/01/10 01:45:21;;;;;;;124.43;65.37;;;-7.90;99.90;;;;;;10093245;29;20683;-83
2024/01/10 01:50:24;;;;;;;192.53;92.83;;;-7.70;99.90;;;;;;10093045;29;20299;-83
2024/01/10 01:55:26;;;;;;;201.20;94.30;;;-7.70;99.90;;;;;;10077091;29;20253;-82
2024/01/10 02:00:30;;;;;;;175.77;89.27;;;-7.70;99.90;;;;;;10086539;29;20319;-82
2024/01/10 02:05:32;;;;;;;190.97;91.77;;;-7.70;99.90;;;;;;10092573;29;20657;-83
2024/01/10 02:10:35;;;;;;;202.87;98.07;;;-7.40;99.90;;;;;;10092934;29;20209;-83
2024/01/10 02:15:39;;;;;;;205.30;97.03;;;-7.40;99.90;;;;;;10063482;29;20241;-83
2024/01/10 02:20:45;;;;;;;175.13;88.67;;;-7.60;99.90;;;;;;10072968;29;20226;-82
2024/01/10 02:25:47;;;;;;;182.10;90.37;;;-7.80;99.90;;;;;;10039886;29;20701;-83
2024/01/10 02:30:52;;;;;;;211.63;98.93;;;-7.80;99.90;;;;;;10072987;29;20261;-83
2024/01/10 02:35:55;;;;;;;184.47;90.07;;;-8.00;99.90;;;;;;10085249;29;20220;-82
2024/01/10 02:40:57;;;;;;;168.87;80.83;;;-7.90;99.90;;;;;;10107587;29;20209;-83
2024/01/10 02:45:59;;;;;;;181.97;91.13;;;-7.70;99.90;;;;;;10087060;29;20205;-82
2024/01/10 02:51:02;;;;;;;187.83;93.43;;;-8.00;99.90;;;;;;10059075;29;20241;-83
2024/01/10 02:56:05;;;;;;;194.30;96.93;;;-7.80;99.90;;;;;;10101615;29;21007;-82
2024/01/10 03:01:09;;;;;;;189.43;94.03;;;-7.30;99.90;;;;;;10137227;29;20213;-83
2024/01/10 03:06:11;;;;;;;204.17;99.23;;;-7.50;99.90;;;;;;10150040;29;20189;-83
2024/01/10 03:11:14;;;;;;;192.03;94.23;;;-8.00;99.90;;;;;;10134752;29;20234;-83
2024/01/10 03:16:17;;;;;;;185.40;89.23;;;-7.90;99.90;;;;;;10103384;29;20221;-83
2024/01/10 03:21:24;;;;;;;199.37;95.73;;;-7.80;99.90;;;;;;10095998;29;20262;-83
2024/01/10 03:26:28;;;;;;;182.27;87.07;;;-7.50;99.90;;;;;;10134600;29;20269;-83
2024/01/10 03:31:30;;;;;;;188.77;91.93;;;-7.80;99.90;;;;;;10125837;29;20177;-83
2024/01/10 03:36:33;;;;;;;189.70;92.17;;;-7.70;99.90;;;;;;10114647;29;20201;-83
2024/01/10 03:41:35;;;;;;;199.77;98.50;;;-7.60;99.90;;;;;;10138008;29;20501;-83
2024/01/10 03:46:38;;;;;;;194.63;98.27;;;-7.70;99.90;;;;;;10111286;29;20202;-83
2024/01/10 03:51:41;;;;;;;170.40;87.43;;;-7.90;99.90;;;;;;10117380;29;20185;-83
2024/01/10 03:56:44;;;;;;;189.60;89.47;;;-7.90;99.90;;;;;;10144064;29;20269;-82
2024/01/10 04:01:46;;;;;;;185.60;89.50;;;-8.00;99.90;;;;;;10118085;29;20193;-83
2024/01/10 04:06:49;;;;;;;170.07;82.67;;;-7.80;99.90;;;;;;10141581;29;20190;-83
2024/01/10 04:11:51;;;;;;;176.03;87.00;;;-7.90;99.90;;;;;;10140135;29;20193;-83
2024/01/10 04:16:54;;;;;;;167.37;82.37;;;-8.10;99.90;;;;;;10133133;29;20213;-83
2024/01/10 04:21:57;;;;;;;186.37;88.17;;;-7.70;99.90;;;;;;10093569;29;20229;-83
2024/01/10 04:26:59;;;;;;;219.60;105.77;;;-7.70;99.90;;;;;;10113664;29;20218;-82
2024/01/10 04:32:02;;;;;;;218.80;105.67;;;-7.40;99.90;;;;;;10110171;29;20197;-82
2024/01/10 04:37:06;;;;;;;258.10;118.33;;;-6.70;99.90;;;;;;10093710;29;20194;-82
2024/01/10 04:42:11;;;;;;;265.87;127.07;;;-7.20;99.90;;;;;;10128001;29;20213;-82
2024/01/10 04:47:13;;;;;;;261.87;124.43;;;-7.70;99.90;;;;;;10131920;29;20185;-83
2024/01/10 04:52:16;;;;;;;255.40;121.57;;;-7.70;99.90;;;;;;10123387;29;20195;-83
2024/01/10 04:57:18;;;;;;;245.03;115.47;;;-7.80;99.90;;;;;;10137747;29;20218;-83
2024/01/10 05:02:21;;;;;;;212.87;104.63;;;-7.90;99.90;;;;;;10145970;29;20201;-83
2024/01/10 05:07:23;;;;;;;225.50;109.10;;;-8.20;99.90;;;;;;10144203;29;20189;-82
2024/01/10 05:12:26;;;;;;;220.63;99.40;;;-8.00;99.90;;;;;;10103220;29;20190;-83
2024/01/10 05:17:28;;;;;;;245.03;116.73;;;-7.60;99.90;;;;;;10118878;29;20193;-84
2024/01/10 05:22:31;;;;;;;213.17;107.00;;;-7.60;99.90;;;;;;10145375;29;20217;-83
2024/01/10 05:27:33;;;;;;;222.93;108.27;;;-7.90;99.90;;;;;;10132586;29;20201;-83
2024/01/10 05:32:36;;;;;;;218.47;105.57;;;-7.80;99.90;;;;;;10145515;29;20209;-82
2024/01/10 05:37:39;;;;;;;230.80;108.30;;;-8.00;99.90;;;;;;10145383;29;20367;-83
2024/01/10 05:42:41;;;;;;;199.90;94.17;;;-8.00;99.90;;;;;;10145693;29;20209;-83
2024/01/10 05:47:44;;;;;;;208.30;98.13;;;-7.80;99.90;;;;;;10144285;29;20189;-82
2024/01/10 05:52:47;;;;;;;142.00;73.50;;;-7.40;99.90;;;;;;10129983;29;20258;-82
2024/01/10 05:57:52;;;;;;;205.70;105.13;;;-7.50;99.90;;;;;;10144320;29;20214;-83
2024/01/10 06:02:54;;;;;;;227.03;106.90;;;-7.40;99.90;;;;;;10144215;29;20173;-83
2024/01/10 06:07:57;;;;;;;205.13;99.87;;;-7.60;99.90;;;;;;10144108;29;20193;-83
2024/01/10 06:13:00;;;;;;;201.73;98.10;;;-7.70;99.90;;;;;;10128454;29;20238;-83
2024/01/10 06:18:03;;;;;;;220.60;106.00;;;-7.50;99.90;;;;;;10139863;29;20177;-84
2024/01/10 06:23:06;;;;;;;185.50;92.77;;;-7.60;99.90;;;;;;10105330;29;20432;-83
2024/01/10 06:28:08;;;;;;;241.47;112.47;;;-7.90;99.90;;;;;;10104259;29;20205;-84
2024/01/10 06:33:11;;;;;;;219.37;105.43;;;-7.80;99.90;;;;;;10088915;29;20226;-84
2024/01/10 06:38:13;;;;;;;240.60;117.37;;;-8.00;99.90;;;;;;10112032;29;20247;-84
2024/01/10 06:43:16;;;;;;;212.83;107.23;;;-8.40;99.90;;;;;;10111216;29;20234;-83
2024/01/10 06:48:19;;;;;;;244.53;116.13;;;-8.10;99.90;;;;;;10110024;29;20208;-83
2024/01/10 06:53:21;;;;;;;238.17;112.07;;;-7.80;99.90;;;;;;10112337;29;20204;-83
2024/01/10 06:58:24;;;;;;;342.73;174.60;;;-7.70;99.90;;;;;;10106043;29;20198;-83
2024/01/10 07:03:27;;;;;;;376.43;188.80;;;-7.00;99.90;;;;;;10109959;29;20241;-83
2024/01/10 07:08:30;;;;;;;308.30;161.57;;;;;;;;;;10116632;29;20205;-82
2024/01/10 07:13:33;;;;;;;291.03;137.93;;;-6.20;99.90;;;;;;10122805;29;20237;-86
2024/01/10 07:18:35;;;;;;;364.63;189.37;;;-2.10;99.90;;;;;;10080118;29;20202;-86
2024/01/10 07:23:40;;;;;;;362.87;202.80;;;-2.30;99.90;;;;;;10052594;29;20309;-86
2024/01/10 07:28:43;;;;;;;262.33;138.90;;;-4.60;99.90;;;;;;10087090;29;20201;-87
2024/01/10 07:33:46;;;;;;;319.73;166.77;;;-5.50;99.90;;;;;;10083066;29;20226;-87
2024/01/10 07:38:48;;;;;;;252.57;126.97;;;-6.40;99.90;;;;;;10098181;29;20198;-87
2024/01/10 07:43:51;;;;;;;131.53;63.13;;;-6.70;99.90;;;;;;10092211;29;20213;-87
2024/01/10 07:48:53;;;;;;;247.83;135.33;;;-5.20;99.90;;;;;;10091784;29;20213;-88
2024/01/10 07:53:56;;;;;;;256.73;135.90;;;-3.40;99.90;;;;;;10079706;29;20210;-87
2024/01/10 07:58:59;;;;;;;253.80;137.90;;;-4.80;99.90;;;;;;10079253;29;20238;-87
2024/01/10 08:04:01;;;;;;;276.77;144.40;;;-5.90;99.90;;;;;;10081126;29;20230;-87
2024/01/10 08:09:04;;;;;;;327.33;163.93;;;-6.30;99.90;;;;;;10068626;29;20206;-87
2024/01/10 08:14:07;;;;;;;326.70;170.53;;;-6.20;99.90;;;;;;10062315;29;20225;-87
2024/01/10 08:19:10;;;;;;;286.43;151.37;;;-6.20;99.90;;;;;;10061638;29;20254;-86
2024/01/10 08:24:13;;;;;;;261.77;135.47;;;-6.20;99.90;;;;;;10075958;29;20237;-87
2024/01/10 08:29:16;;;;;;;250.37;131.03;;;-5.80;99.90;;;;;;10062594;29;20243;-86
2024/01/10 08:34:19;;;;;;;253.73;136.30;;;-5.90;99.90;;;;;;10078527;29;20258;-88
2024/01/10 08:39:24;;;;;;;282.30;145.37;;;-5.90;99.90;;;;;;10079418;29;20214;-87
2024/01/10 08:44:26;;;;;;;317.47;163.80;;;-5.60;99.90;;;;;;10061595;29;20273;-87
2024/01/10 08:49:29;;;;;;;252.50;132.73;;;-5.50;99.90;;;;;;10088473;29;20279;-87
2024/01/10 08:54:33;;;;;;;237.43;125.50;;;-5.50;99.90;;;;;;10066888;29;20221;-87
2024/01/10 08:59:36;;;;;;;245.17;124.77;;;-5.20;99.90;;;;;;10055504;29;20266;-87
2024/01/10 09:04:39;;;;;;;240.33;123.70;;;-5.10;99.90;;;;;;10068235;29;20230;-87
2024/01/10 09:09:42;;;;;;;241.83;123.17;;;-4.90;99.90;;;;;;10099035;29;20214;-86
2024/01/10 09:14:44;;;;;;;252.20;131.83;;;-4.70;99.90;;;;;;10096318;29;20233;-87
2024/01/10 09:19:46;;;;;;;262.07;136.17;;;-4.60;99.90;;;;;;10087118;29;20225;-88
2024/01/10 09:24:49;;;;;;;224.37;112.63;;;-4.20;99.90;;;;;;10094231;29;20214;-87
2024/01/10 09:29:52;;;;;;;164.60;84.03;;;-4.30;99.90;;;;;;10088653;29;20209;-84
2024/01/10 09:34:55;;;;;;;185.60;93.27;;;-1.90;99.90;;;;;;10050911;29;20261;-82
2024/01/10 09:39:58;;;;;;;193.90;101.47;;;-0.70;99.90;;;;;;10061529;29;20711;-82
2024/01/10 09:45:03;;;;;;;199.40;104.93;;;-1.80;99.90;;;;;;10054407;29;20266;-82
2024/01/10 09:50:07;;;;;;;176.47;94.57;;;-2.60;99.90;;;;;;10055859;29;20323;-82
2024/01/10 09:55:11;;;;;;;188.13;98.80;;;-2.80;99.90;;;;;;10054905;29;20256;-82
2024/01/10 10:00:16;;;;;;;216.73;116.27;;;-2.50;99.90;;;;;;10052090;29;20229;-82
2024/01/10 10:05:18;;;;;;;255.90;137.33;;;-2.80;99.90;;;;;;10051746;29;20274;-82
2024/01/10 10:10:21;;;;;;;255.23;138.03;;;-2.50;99.90;;;;;;10053006;29;20301;-82
2024/01/10 10:15:27;;;;;;;236.93;126.20;;;-2.30;99.90;;;;;;10051251;29;20273;-82
2024/01/10 10:20:35;;;;;;;239.33;130.97;;;-1.40;99.90;;;;;;10057177;29;20734;-82
2024/01/10 10:25:45;;;;;;;261.37;136.67;;;-1.10;99.90;;;;;;10095378;29;20264;-83
2024/01/10 10:30:51;;;;;;;226.23;120.13;;;-1.10;99.90;;;;;;10025977;29;20583;-82
2024/01/10 10:35:55;;;;;;;220.63;117.80;;;-1.20;99.90;;;;;;10040037;29;20262;-82
2024/01/10 10:40:59;;;;;;;256.80;140.10;;;-1.60;99.90;;;;;;10089563;29;20213;-83
2024/01/10 10:46:03;;;;;;;230.20;127.30;;;-1.90;99.90;;;;;;10095000;29;20268;-83
2024/01/10 10:51:28;;;;;;;204.33;109.30;;;-1.50;99.90;;;;;;10103045;29;20212;-83
2024/01/10 10:56:34;;;;;;;180.17;96.27;;;-1.00;99.90;;;;;;10089705;29;20795;-82
2024/01/10 11:01:38;;;;;;;176.80;95.37;;;-0.70;99.90;;;;;;10099379;29;20197;-83
2024/01/10 11:06:40;;;;;;;163.80;88.03;;;-0.60;99.90;;;;;;10098318;29;20232;-83
2024/01/10 11:11:49;;;;;;;145.43;77.53;;;-1.00;99.90;;;;;;10086227;29;20254;-83
2024/01/10 11:17:19;;;;;;;171.57;89.67;;;-1.00;99.90;;;;;;10089996;29;20252;-83
2024/01/10 11:22:49;;;;;;;163.53;86.77;;;-0.90;99.90;;;;;;10108074;29;20320;-83
2024/01/10 11:27:55;;;;;;;154.63;82.87;;;-0.90;99.90;;;;;;10098003;29;20205;-83
2024/01/10 11:33:45;;;;;;;133.87;72.03;;;-0.90;99.90;;;;;;10113735;29;20236;-82
2024/01/10 11:38:54;;;;;;;185.07;101.87;;;0.20;99.90;;;;;;10118545;29;20283;-83
2024/01/10 11:44:18;;;;;;;181.40;93.27;;;0.30;99.90;;;;;;10086535;29;20292;-82
2024/01/10 11:49:23;;;;;;;203.73;107.90;;;0.20;99.90;;;;;;10103593;29;20232;-83
2024/01/10 11:54:42;;;;;;;191.47;106.47;;;-0.30;99.90;;;;;;10080557;29;20256;-82
2024/01/10 11:59:45;;;;;;;201.97;110.97;;;-0.30;99.90;;;;;;10081017;29;20276;-82
2024/01/10 12:04:48;;;;;;;179.83;97.20;;;-0.30;99.90;;;;;;10097107;29;20296;-82
2024/01/10 12:09:51;;;;;;;157.47;84.83;;;-0.20;99.90;;;;;;10097752;29;20245;-83
2024/01/10 12:14:54;;;;;;;209.17;115.97;;;0.10;99.90;;;;;;10097381;29;20390;-83
2024/01/10 12:19:56;;;;;;;165.90;89.80;;;0.20;99.90;;;;;;10094512;29;20249;-82
2024/01/10 12:25:04;;;;;;;204.13;111.73;;;0.10;99.90;;;;;;10076922;29;20304;-82
2024/01/10 12:30:07;;;;;;;187.77;104.00;;;0.00;99.90;;;;;;10094516;29;20240;-83
2024/01/10 12:35:10;;;;;;;157.00;84.97;;;0.20;99.90;;;;;;10094462;29;20335;-82
2024/01/10 12:40:13;;;;;;;179.53;99.37;;;1.40;99.90;;;;;;10076685;29;20244;-82
2024/01/10 12:45:23;;;;;;;175.93;96.37;;;1.40;99.90;;;;;;10085874;29;20264;-82
2024/01/10 12:50:26;;;;;;;164.73;93.43;;;1.30;99.90;;;;;;10109184;29;20248;-83
2024/01/10 12:55:29;;;;;;;148.80;80.80;;;1.00;99.90;;;;;;10093354;29;20337;-82
2024/01/10 13:00:35;;;;;;;157.50;91.07;;;1.00;99.90;;;;;;10113171;29;20288;-82
2024/01/10 13:05:37;;;;;;;165.63;91.20;;;1.20;99.90;;;;;;10087468;29;20233;-82
2024/01/10 13:10:41;;;;;;;147.30;85.37;;;1.50;99.90;;;;;;10092542;29;20240;-83
2024/01/10 13:15:45;;;;;;;137.20;79.47;;;1.40;99.90;;;;;;10122802;29;20260;-82
2024/01/10 13:20:48;;;;;;;158.43;83.80;;;1.50;99.90;;;;;;10092150;29;20324;-82
2024/01/10 13:25:51;;;;;;;156.70;92.30;;;1.50;99.90;;;;;;10092443;29;20244;-82
2024/01/10 13:30:57;;;;;;;137.93;74.83;;;1.00;99.90;;;;;;10075478;29;20383;-83
2024/01/10 13:36:00;;;;;;;139.63;77.17;;;1.30;99.90;;;;;;10097687;29;20253;-83
2024/01/10 13:41:05;;;;;;;132.30;71.57;;;1.40;99.90;;;;;;10091161;29;20754;-85
2024/01/10 13:46:07;;;;;;;131.97;74.10;;;1.60;99.90;;;;;;10074890;29;20240;-87
2024/01/10 13:51:11;;;;;;;144.80;71.57;;;3.60;99.90;;;;;;10092382;29;20285;-86
2024/01/10 13:56:14;;;;;;;138.60;74.90;;;3.60;99.90;;;;;;10091048;29;20264;-86
2024/01/10 14:01:17;;;;;;;142.90;77.77;;;3.10;99.90;;;;;;10074754;29;20379;-88
2024/01/10 14:06:19;;;;;;;133.13;73.17;;;2.40;99.90;;;;;;10091662;29;20232;-88
2024/01/10 14:11:22;;;;;;;128.17;72.87;;;1.80;99.90;;;;;;10074729;29;20304;-87
2024/01/10 14:16:25;;;;;;;143.40;75.20;;;1.50;99.90;;;;;;10074353;29;20272;-88
2024/01/10 14:21:27;;;;;;;60.00;28.13;;;1.50;99.90;;;;;;10090261;29;20256;-82
2024/01/10 14:26:30;;;;;;;142.63;73.57;;;2.20;99.90;;;;;;10093789;29;20240;-82
2024/01/10 14:31:33;;;;;;;114.43;64.20;;;3.30;99.90;;;;;;10074457;29;20269;-82
2024/01/10 14:36:55;;;;;;;136.67;76.97;;;3.20;99.90;;;;;;10089575;29;20797;-82
2024/01/10 14:41:58;;;;;;;107.67;59.53;;;2.80;99.90;;;;;;10089863;29;20233;-80
2024/01/10 14:47:01;;;;;;;120.67;67.73;;;1.80;99.90;;;;;;10089929;29;20682;-81
2024/01/10 14:52:12;;;;;;;98.33;53.43;;;1.00;99.90;;;;;;10073108;29;20702;-81
2024/01/10 14:57:16;;;;;;;192.03;92.53;;;0.80;99.90;;;;;;10088918;29;20316;-82
2024/01/10 15:02:18;;;;;;;162.23;81.07;;;0.80;99.90;;;;;;10074155;29;20679;-82
2024/01/10 15:07:22;;;;;;;153.97;72.50;;;0.80;99.90;;;;;;10090227;29;20685;-81
2024/01/10 15:12:25;;;;;;;222.97;98.97;;;0.70;99.90;;;;;;10072586;29;20731;-81
2024/01/10 15:17:28;;;;;;;132.53;64.07;;;0.60;99.90;;;;;;10089726;29;20256;-81
2024/01/10 15:22:31;;;;;;;99.50;51.67;;;0.20;99.90;;;;;;10089104;29;20329;-81
2024/01/10 15:27:33;;;;;;;104.00;53.80;;;-0.20;99.90;;;;;;10087892;29;20241;-81
2024/01/10 15:32:36;;;;;;;114.43;58.73;;;-0.30;99.90;;;;;;10094674;29;20244;-81
2024/01/10 15:37:38;;;;;;;194.07;91.87;;;-0.10;99.90;;;;;;10089098;29;20718;-81
2024/01/10 15:42:41;;;;;;;121.00;61.83;;;-0.90;99.90;;;;;;10088845;29;20304;-81
2024/01/10 15:47:44;;;;;;;131.53;67.50;;;-1.80;99.90;;;;;;10088133;29;20321;-81
2024/01/10 15:52:48;;;;;;;108.50;58.07;;;-2.20;99.90;;;;;;10088015;29;20949;-82
2024/01/10 15:57:51;;;;;;;109.43;56.47;;;-2.50;99.90;;;;;;10089818;29;20309;-81
2024/01/10 16:02:53;;;;;;;101.27;53.30;;;-2.50;99.90;;;;;;10079392;29;20714;-81
2024/01/10 16:07:56;;;;;;;121.20;61.63;;;-3.10;99.90;;;;;;10099756;29;20285;-82
2024/01/10 16:12:58;;;;;;;86.63;46.07;;;-3.70;99.90;;;;;;10094282;29;20292;-81
2024/01/10 16:18:02;;;;;;;79.07;44.23;;;-3.90;99.90;;;;;;10095369;29;20316;-81
2024/01/10 16:23:04;;;;;;;101.60;53.73;;;-3.60;99.90;;;;;;10094063;29;20288;-81
2024/01/10 16:28:07;;;;;;;94.83;50.17;;;-3.80;99.90;;;;;;10093351;29;20790;-81
2024/01/10 16:33:09;;;;;;;92.10;51.70;;;-4.10;99.90;;;;;;10094002;29;21014;-81
2024/01/10 16:38:13;;;;;;;101.53;54.77;;;-4.10;99.90;;;;;;10097496;29;20308;-81
2024/01/10 16:43:16;;;;;;;99.30;51.37;;;-4.20;99.90;;;;;;10094088;29;20300;-81
2024/01/10 16:48:18;;;;;;;116.10;57.50;;;-4.40;99.90;;;;;;10093977;29;20695;-81
2024/01/10 16:53:21;;;;;;;105.27;51.77;;;-4.30;99.90;;;;;;10093953;29;20244;-81
2024/01/10 16:58:24;;;;;;;111.57;55.67;;;-4.00;99.90;;;;;;10077526;29;20257;-81
2024/01/10 17:03:27;;;;;;;131.90;63.17;;;-3.90;99.90;;;;;;10094098;29;20305;-81
2024/01/10 17:08:29;;;;;;;147.20;62.57;;;-3.90;99.90;;;;;;10092385;29;20304;-81
2024/01/10 17:13:32;;;;;;;154.50;77.40;;;-3.20;99.90;;;;;;10092068;29;20272;-81
2024/01/10 17:18:34;;;;;;;176.97;87.47;;;-3.00;99.90;;;;;;10092465;29;20318;-81
2024/01/10 17:23:37;;;;;;;117.13;56.40;;;-3.80;99.90;;;;;;10092612;29;20312;-81
2024/01/10 17:28:40;;;;;;;171.77;84.87;;;-3.60;99.90;;;;;;10092164;29;20244;-81
2024/01/10 17:33:43;;;;;;;242.40;103.50;;;-2.90;99.90;;;;;;10075481;29;20269;-81
2024/01/10 17:38:46;;;;;;;236.50;104.03;;;-2.80;99.90;;;;;;10091750;29;20265;-81
2024/01/10 17:43:48;;;;;;;159.33;78.83;;;-3.50;99.90;;;;;;10075496;29;20292;-82
2024/01/10 17:48:51;;;;;;;130.70;63.90;;;-4.10;99.90;;;;;;10074754;29;20232;-81
2024/01/10 17:53:56;;;;;;;174.87;82.83;;;-4.40;99.90;;;;;;10074855;29;20244;-81
2024/01/10 17:59:00;;;;;;;139.47;67.03;;;-4.60;99.90;;;;;;10099620;29;20260;-81
2024/01/10 18:04:02;;;;;;;141.70;70.10;;;-4.10;99.90;;;;;;10087057;29;20257;-82
2024/01/10 18:09:15;;;;;;;177.43;90.47;;;-3.80;99.90;;;;;;10075576;29;20229;-81
2024/01/10 18:14:18;;;;;;;183.60;93.60;;;-4.20;99.90;;;;;;10063189;29;20229;-82
2024/01/10 18:19:20;;;;;;;206.17;103.53;;;-4.70;99.90;;;;;;10101521;29;20256;-81
2024/01/10 18:24:23;;;;;;;201.37;101.93;;;-5.10;99.90;;;;;;10089052;29;20273;-81
2024/01/10 18:29:25;;;;;;;183.30;93.37;;;-5.10;99.90;;;;;;10104940;29;20692;-81
2024/01/10 18:34:28;;;;;;;229.33;115.10;;;-5.40;99.90;;;;;;10090407;29;20229;-81
2024/01/10 18:39:31;;;;;;;236.97;115.93;;;-5.70;99.90;;;;;;10081743;29;20328;-82
2024/01/10 18:44:33;;;;;;;175.97;86.00;;;-5.40;99.90;;;;;;10090770;29;20775;-82
2024/01/10 18:49:36;;;;;;;195.07;100.17;;;-5.10;99.90;;;;;;10089818;29;20269;-82
2024/01/10 18:54:38;;;;;;;197.07;102.50;;;-4.40;99.90;;;;;;10082161;29;20248;-83
2024/01/10 18:59:41;;;;;;;173.77;87.33;;;-4.70;99.90;;;;;;10088715;29;20284;-82
2024/01/10 19:04:43;;;;;;;262.10;123.10;;;-4.80;99.90;;;;;;10090164;29;20706;-82
2024/01/10 19:09:46;;;;;;;258.77;131.03;;;-4.10;99.90;;;;;;10074514;29;20249;-81
2024/01/10 19:14:48;;;;;;;325.03;160.07;;;-3.90;99.90;;;;;;10087343;29;20233;-82
2024/01/10 19:19:51;;;;;;;275.33;139.43;;;-3.70;99.90;;;;;;10071535;29;20264;-82
2024/01/10 19:24:54;;;;;;;302.27;151.30;;;-4.40;99.90;;;;;;10085982;29;20244;-82
2024/01/10 19:29:56;;;;;;;319.87;192.43;;;-4.50;99.90;;;;;;9749520;29;10000106;-82
2024/01/10 19:34:59;;;;;;;400.43;222.97;;;-6.20;99.90;;;;;;10093190;29;20845;-82
2024/01/10 19:40:02;;;;;;;400.97;221.63;;;-6.90;99.90;;;;;;10094707;29;20293;-82
2024/01/10 19:45:06;;;;;;;391.70;216.67;;;-7.30;99.90;;;;;;10091155;29;20273;-82
2024/01/10 19:50:09;;;;;;;387.43;213.60;;;-7.70;99.90;;;;;;10088742;29;20241;-81
2024/01/10 19:55:12;;;;;;;251.43;115.10;;;-8.00;99.90;;;;;;10088878;29;20770;-82
2024/01/10 20:00:14;;;;;;;153.40;68.50;;;-8.00;99.90;;;;;;10091929;29;20252;-83
2024/01/10 20:05:17;;;;;;;169.60;77.80;;;-7.20;99.90;;;;;;10090840;29;20309;-83
2024/01/10 20:10:20;;;;;;;205.83;96.47;;;-6.00;99.90;;;;;;10088088;29;20741;-83
2024/01/10 20:15:23;;;;;;;121.40;58.00;;;-5.20;99.90;;;;;;10081990;29;20295;-82
2024/01/10 20:20:29;;;;;;;120.73;60.10;;;-3.60;99.90;;;;;;10110542;29;20260;-82
2024/01/10 20:25:31;;;;;;;137.40;65.53;;;-2.90;99.90;;;;;;10103910;29;20240;-83
2024/01/10 20:30:34;;;;;;;132.80;66.30;;;-2.20;99.90;;;;;;10088887;29;20296;-82
2024/01/10 20:35:37;;;;;;;145.47;71.17;;;-2.00;99.90;;;;;;10113524;29;20233;-82
2024/01/10 20:40:39;;;;;;;194.70;92.17;;;-2.20;99.90;;;;;;10113651;29;20339;-82
2024/01/10 20:45:41;;;;;;;138.37;68.20;;;-2.50;99.90;;;;;;10096979;29;20645;-81
2024/01/10 20:50:44;;;;;;;153.37;75.27;;;-2.50;99.90;;;;;;10105061;29;20240;-81
2024/01/10 20:55:47;;;;;;;164.70;76.07;;;-1.90;99.90;;;;;;10105406;29;20277;-81
2024/01/10 21:00:51;;;;;;;96.13;49.43;;;-2.20;99.90;;;;;;10110506;29;20253;-82
2024/01/10 21:05:54;;;;;;;147.97;77.07;;;-1.30;99.90;;;;;;10085686;29;20261;-82
2024/01/10 21:10:57;;;;;;;142.87;76.47;;;-0.60;99.90;;;;;;10101815;29;20280;-82
2024/01/10 21:16:00;;;;;;;175.07;90.20;;;-0.10;99.90;;;;;;10107846;29;20229;-82
2024/01/10 21:21:03;;;;;;;143.40;72.40;;;-0.40;99.90;;;;;;10109779;29;20256;-81
2024/01/10 21:26:05;;;;;;;113.90;53.87;;;-1.20;99.90;;;;;;10101721;29;20264;-81
2024/01/10 21:31:08;;;;;;;148.63;75.37;;;-0.90;99.90;;;;;;10108751;29;20229;-83
2024/01/10 21:36:11;;;;;;;97.57;52.13;;;-0.40;99.90;;;;;;10103820;29;20946;-83
2024/01/10 21:41:14;;;;;;;106.90;54.97;;;0.30;99.90;;;;;;10099426;29;20232;-83
2024/01/10 21:46:18;;;;;;;133.77;67.67;;;1.00;99.90;;;;;;10106810;29;20766;-82
2024/01/10 21:51:20;;;;;;;100.83;56.60;;;0.80;99.90;;;;;;10087825;29;20275;-83
2024/01/10 21:56:23;;;;;;;89.73;51.33;;;0.70;99.90;;;;;;10100554;29;20702;-83
2024/01/10 22:01:26;;;;;;;133.80;71.63;;;0.50;99.90;;;;;;10101760;29;20343;-84
2024/01/10 22:06:29;;;;;;;118.63;62.30;;;0.30;99.90;;;;;;9426958;29;10000680;-83
2024/01/10 22:11:31;;;;;;;114.67;63.10;;;-0.10;99.90;;;;;;10092175;29;20307;-83
2024/01/10 22:16:34;;;;;;;110.33;55.83;;;0.50;99.90;;;;;;10088800;29;20449;-83
2024/01/10 22:21:37;;;;;;;98.87;51.73;;;0.80;99.90;;;;;;10092574;29;20265;-82
2024/01/10 22:26:39;;;;;;;95.23;48.33;;;1.40;99.90;;;;;;10102321;29;20233;-82
2024/01/10 22:31:57;;;;;;;93.97;51.50;;;1.60;99.90;;;;;;10591307;27;20540;-84
2024/01/10 22:37:00;;;;;;;101.40;54.90;;;0.30;99.90;;;;;;10562302;28;20216;-84
2024/01/10 22:42:02;;;;;;;108.00;58.67;;;0.60;99.90;;;;;;10545733;28;20224;-84
2024/01/10 22:47:06;;;;;;;79.17;38.40;;;-0.10;99.90;;;;;;10562840;28;20232;-84
2024/01/10 22:52:10;;;;;;;104.17;60.63;;;0.20;99.90;;;;;;10565578;28;20228;-84
2024/01/10 22:57:13;;;;;;;81.40;42.47;;;0.20;99.90;;;;;;10544261;28;20222;-85
2024/01/10 23:02:15;;;;;;;57.63;30.23;;;-1.20;99.90;;;;;;10548825;28;20238;-85
2024/01/10 23:07:18;;;;;;;70.87;36.27;;;-1.70;99.90;;;;;;10535631;28;20274;-85
2024/01/10 23:12:20;;;;;;;58.40;32.43;;;-2.10;99.90;;;;;;10567437;28;20233;-85
2024/01/10 23:17:23;;;;;;;62.83;33.17;;;-1.10;99.90;;;;;;10540253;28;20236;-84
2024/01/10 23:22:26;;;;;;;58.50;32.70;;;-0.20;99.90;;;;;;10567135;28;20229;-84
2024/01/10 23:27:28;;;;;;;59.30;26.67;;;0.70;99.90;;;;;;10565246;28;20764;-85
2024/01/10 23:32:31;;;;;;;60.37;32.23;;;1.70;99.90;;;;;;10566565;28;20229;-85
2024/01/10 23:37:33;;;;;;;46.87;25.97;;;2.50;99.90;;;;;;10527831;28;20201;-82
2024/01/10 23:42:36;;;;;;;52.50;28.70;;;1.90;99.90;;;;;;10501295;28;20234;-82
2024/01/10 23:47:38;;;;;;;50.70;26.87;;;1.80;99.90;;;;;;10538363;28;20249;-83
2024/01/10 23:52:41;;;;;;;48.73;27.00;;;2.30;99.90;;;;;;10538204;28;20283;-83
2024/01/10 23:57:43;;;;;;;46.97;25.37;;;3.60;99.90;;;;;;10527007;28;20237;-82
